Orlando, Florida
Traffic Map
Current Weather Conditions
Orlando, Florida
Clear
Clear
80°
Feels Like: 85°
Wind Chill: 80° Ceiling: Unl
Heat Index: 85° Visibility: 10mi
Dew Point: 74° Wind: 6mph
Humidity: 81% Direction: 100° (E)
Pressure: 30.03in Gusts: 0mph
Raw Report DataKORL 290453Z 10005KT 10SM CLR 27/23 A3003 RMK AO2 SLP169 T02670233 403440233
Traffic Incident Summary
Active as of:
Severity:
Category:
InformationThere was an issue retrieving the traffic information for this location. Please try a different location or try again shortly.
Advertisements
Track Severe Weather on mobile